sensor_id;sensor_type;location;lat;lon;timestamp;pressure;altitude;pressure_sealevel;temperature;humidity
77881;BME280;67077;50.298;18.996;2023-05-07T05:50:14;98371.00;;;6.46;84.20
77881;BME280;67077;50.298;18.996;2023-05-07T05:52:43;98376.10;;;6.42;84.08
77881;BME280;67077;50.298;18.996;2023-05-07T05:55:11;98381.16;;;6.35;84.18
77881;BME280;67077;50.298;18.996;2023-05-07T05:57:39;98384.29;;;6.30;84.13
77881;BME280;67077;50.298;18.996;2023-05-07T06:00:08;98381.65;;;6.31;84.17
77881;BME280;67077;50.298;18.996;2023-05-07T06:02:37;98379.30;;;6.35;84.20
77881;BME280;67077;50.298;18.996;2023-05-07T06:05:06;98384.95;;;6.37;84.31
77881;BME280;67077;50.298;18.996;2023-05-07T06:07:34;98382.60;;;6.37;84.03
77881;BME280;67077;50.298;18.996;2023-05-07T06:10:06;98391.98;;;6.38;83.89
77881;BME280;67077;50.298;18.996;2023-05-07T06:12:34;98397.80;;;6.38;83.90
77881;BME280;67077;50.298;18.996;2023-05-07T06:15:03;98400.48;;;6.33;83.70
77881;BME280;67077;50.298;18.996;2023-05-07T06:17:32;98400.58;;;6.28;83.77
77881;BME280;67077;50.298;18.996;2023-05-07T06:20:00;98399.75;;;6.24;83.98
77881;BME280;67077;50.298;18.996;2023-05-07T06:22:28;98400.35;;;6.22;84.02
77881;BME280;67077;50.298;18.996;2023-05-07T06:24:56;98403.20;;;6.23;83.95
77881;BME280;67077;50.298;18.996;2023-05-07T06:27:24;98401.52;;;6.20;84.03
77881;BME280;67077;50.298;18.996;2023-05-07T06:29:53;98403.26;;;6.21;84.03
77881;BME280;67077;50.298;18.996;2023-05-07T06:32:22;98407.14;;;6.21;84.08
77881;BME280;67077;50.298;18.996;2023-05-07T06:34:51;98408.37;;;6.17;83.86
77881;BME280;67077;50.298;18.996;2023-05-07T06:37:19;98410.42;;;6.13;83.39
77881;BME280;67077;50.298;18.996;2023-05-07T06:39:47;98408.89;;;6.06;83.64
77881;BME280;67077;50.298;18.996;2023-05-07T06:42:15;98412.79;;;6.07;83.77
77881;BME280;67077;50.298;18.996;2023-05-07T06:44:44;98412.04;;;6.10;83.97
77881;BME280;67077;50.298;18.996;2023-05-07T06:47:12;98423.65;;;6.10;83.43
77881;BME280;67077;50.298;18.996;2023-05-07T06:49:40;98425.13;;;6.07;83.08
77881;BME280;67077;50.298;18.996;2023-05-07T06:52:11;98425.63;;;6.01;82.96
77881;BME280;67077;50.298;18.996;2023-05-07T06:54:39;98430.64;;;6.00;83.02
77881;BME280;67077;50.298;18.996;2023-05-07T06:57:08;98428.07;;;6.02;82.89
77881;BME280;67077;50.298;18.996;2023-05-07T06:59:36;98427.66;;;6.05;82.70
77881;BME280;67077;50.298;18.996;2023-05-07T07:02:05;98427.21;;;6.06;82.69
77881;BME280;67077;50.298;18.996;2023-05-07T07:04:34;98429.55;;;6.07;82.68
77881;BME280;67077;50.298;18.996;2023-05-07T07:07:02;98430.61;;;6.06;82.73
77881;BME280;67077;50.298;18.996;2023-05-07T07:09:31;98430.23;;;6.06;82.72
77881;BME280;67077;50.298;18.996;2023-05-07T07:12:01;98433.03;;;6.08;82.80
77881;BME280;67077;50.298;18.996;2023-05-07T07:14:29;98437.45;;;6.11;82.49
77881;BME280;67077;50.298;18.996;2023-05-07T07:16:57;98436.90;;;6.16;82.63
77881;BME280;67077;50.298;18.996;2023-05-07T07:19:26;98441.40;;;6.28;82.39
77881;BME280;67077;50.298;18.996;2023-05-07T07:21:54;98443.24;;;6.41;82.11
77881;BME280;67077;50.298;18.996;2023-05-07T07:24:22;98446.44;;;6.50;81.39
77881;BME280;67077;50.298;18.996;2023-05-07T07:26:51;98449.14;;;6.59;81.19
77881;BME280;67077;50.298;18.996;2023-05-07T07:29:21;98449.98;;;6.70;80.62
77881;BME280;67077;50.298;18.996;2023-05-07T07:32:06;98451.46;;;6.77;79.81
77881;BME280;67077;50.298;18.996;2023-05-07T07:34:34;98449.69;;;6.78;79.45
77881;BME280;67077;50.298;18.996;2023-05-07T07:37:02;98453.49;;;6.78;79.22
77881;BME280;67077;50.298;18.996;2023-05-07T07:39:34;98460.92;;;6.77;79.02
77881;BME280;67077;50.298;18.996;2023-05-07T07:42:05;98464.02;;;6.79;78.82
77881;BME280;67077;50.298;18.996;2023-05-07T07:44:33;98469.64;;;6.83;78.79
77881;BME280;67077;50.298;18.996;2023-05-07T07:47:01;98469.66;;;6.84;78.44
77881;BME280;67077;50.298;18.996;2023-05-07T07:49:29;98467.35;;;6.88;78.69
77881;BME280;67077;50.298;18.996;2023-05-07T07:51:57;98466.47;;;6.96;78.87
77881;BME280;67077;50.298;18.996;2023-05-07T07:54:26;98467.43;;;7.01;78.83
77881;BME280;67077;50.298;18.996;2023-05-07T07:56:54;98471.29;;;6.95;78.40
77881;BME280;67077;50.298;18.996;2023-05-07T07:59:24;98472.17;;;6.87;78.55
77881;BME280;67077;50.298;18.996;2023-05-07T08:01:52;98483.54;;;6.84;78.24
77881;BME280;67077;50.298;18.996;2023-05-07T08:04:23;98485.31;;;6.81;78.53
77881;BME280;67077;50.298;18.996;2023-05-07T08:06:51;98485.23;;;6.80;78.39
77881;BME280;67077;50.298;18.996;2023-05-07T08:09:18;98485.76;;;6.80;78.52
77881;BME280;67077;50.298;18.996;2023-05-07T08:11:46;98485.77;;;6.77;78.73
77881;BME280;67077;50.298;18.996;2023-05-07T08:14:14;98484.45;;;6.78;78.84
77881;BME280;67077;50.298;18.996;2023-05-07T08:16:43;98489.13;;;6.81;78.71
77881;BME280;67077;50.298;18.996;2023-05-07T08:19:11;98488.80;;;6.82;78.23
77881;BME280;67077;50.298;18.996;2023-05-07T08:21:39;98491.88;;;6.80;77.98
77881;BME280;67077;50.298;18.996;2023-05-07T08:24:08;98496.98;;;6.78;78.15
77881;BME280;67077;50.298;18.996;2023-05-07T08:26:36;98496.42;;;6.79;78.15
77881;BME280;67077;50.298;18.996;2023-05-07T08:29:07;98502.61;;;6.76;78.12
77881;BME280;67077;50.298;18.996;2023-05-07T08:31:35;98505.70;;;6.72;78.30
77881;BME280;67077;50.298;18.996;2023-05-07T08:34:03;98508.54;;;6.73;78.07
77881;BME280;67077;50.298;18.996;2023-05-07T08:36:31;98516.08;;;6.75;77.99
77881;BME280;67077;50.298;18.996;2023-05-07T08:38:59;98512.48;;;6.80;77.67
77881;BME280;67077;50.298;18.996;2023-05-07T08:41:29;98518.03;;;6.78;77.67
77881;BME280;67077;50.298;18.996;2023-05-07T08:43:59;98516.16;;;6.78;77.75
77881;BME280;67077;50.298;18.996;2023-05-07T08:46:31;98521.05;;;6.82;77.60
77881;BME280;67077;50.298;18.996;2023-05-07T08:48:59;98522.91;;;6.88;77.52
77881;BME280;67077;50.298;18.996;2023-05-07T08:51:28;98522.88;;;6.97;77.46
77881;BME280;67077;50.298;18.996;2023-05-07T08:53:56;98524.71;;;7.04;77.07
77881;BME280;67077;50.298;18.996;2023-05-07T08:56:24;98531.67;;;7.08;76.82
77881;BME280;67077;50.298;18.996;2023-05-07T08:58:52;98533.77;;;7.14;76.61
77881;BME280;67077;50.298;18.996;2023-05-07T09:01:26;98535.45;;;7.19;76.44
77881;BME280;67077;50.298;18.996;2023-05-07T09:03:54;98538.67;;;7.24;76.56
77881;BME280;67077;50.298;18.996;2023-05-07T09:06:22;98540.74;;;7.25;76.45
77881;BME280;67077;50.298;18.996;2023-05-07T09:08:52;98542.69;;;7.21;76.54
77881;BME280;67077;50.298;18.996;2023-05-07T09:11:24;98551.52;;;7.22;76.32
77881;BME280;67077;50.298;18.996;2023-05-07T09:13:56;98548.48;;;7.23;76.29
77881;BME280;67077;50.298;18.996;2023-05-07T09:16:29;98550.63;;;7.18;76.18
77881;BME280;67077;50.298;18.996;2023-05-07T09:18:59;98549.08;;;7.13;76.36
77881;BME280;67077;50.298;18.996;2023-05-07T09:21:28;98553.52;;;7.15;76.21
77881;BME280;67077;50.298;18.996;2023-05-07T09:23:56;98554.86;;;7.17;76.12
77881;BME280;67077;50.298;18.996;2023-05-07T09:26:24;98558.63;;;7.22;75.96
77881;BME280;67077;50.298;18.996;2023-05-07T09:28:52;98559.84;;;7.23;75.63
77881;BME280;67077;50.298;18.996;2023-05-07T09:31:21;98560.87;;;7.26;75.63
77881;BME280;67077;50.298;18.996;2023-05-07T09:33:52;98558.88;;;7.29;75.49
77881;BME280;67077;50.298;18.996;2023-05-07T09:36:20;98564.22;;;7.26;75.33
77881;BME280;67077;50.298;18.996;2023-05-07T09:38:48;98561.88;;;7.18;75.58
77881;BME280;67077;50.298;18.996;2023-05-07T09:41:17;98569.47;;;7.14;75.78
77881;BME280;67077;50.298;18.996;2023-05-07T09:43:45;98571.30;;;7.09;75.93
77881;BME280;67077;50.298;18.996;2023-05-07T09:46:14;98569.14;;;7.05;75.77
77881;BME280;67077;50.298;18.996;2023-05-07T09:48:44;98569.76;;;7.00;75.98
77881;BME280;67077;50.298;18.996;2023-05-07T09:51:22;98573.80;;;6.96;76.03
77881;BME280;67077;50.298;18.996;2023-05-07T09:53:51;98577.98;;;6.91;76.24
77881;BME280;67077;50.298;18.996;2023-05-07T09:56:21;98576.54;;;6.86;76.35
77881;BME280;67077;50.298;18.996;2023-05-07T09:58:49;98577.06;;;6.82;76.46
77881;BME280;67077;50.298;18.996;2023-05-07T10:01:19;98581.56;;;6.82;76.55
77881;BME280;67077;50.298;18.996;2023-05-07T10:03:49;98588.59;;;6.79;76.58
77881;BME280;67077;50.298;18.996;2023-05-07T10:06:22;98593.29;;;6.75;76.62
77881;BME280;67077;50.298;18.996;2023-05-07T10:08:51;98596.45;;;6.73;76.86
77881;BME280;67077;50.298;18.996;2023-05-07T10:11:21;98600.05;;;6.74;76.90
77881;BME280;67077;50.298;18.996;2023-05-07T10:13:49;98600.27;;;6.78;77.09
77881;BME280;67077;50.298;18.996;2023-05-07T10:16:21;98604.50;;;6.85;76.85
77881;BME280;67077;50.298;18.996;2023-05-07T10:18:49;98605.05;;;6.85;76.80
77881;BME280;67077;50.298;18.996;2023-05-07T10:21:22;98604.30;;;6.90;76.88
77881;BME280;67077;50.298;18.996;2023-05-07T10:24:03;98608.20;;;6.93;76.44
77881;BME280;67077;50.298;18.996;2023-05-07T10:26:35;98608.17;;;7.00;76.44
77881;BME280;67077;50.298;18.996;2023-05-07T10:29:15;98608.48;;;7.08;76.28
77881;BME280;67077;50.298;18.996;2023-05-07T10:34:36;98608.88;;;7.20;75.82
77881;BME280;67077;50.298;18.996;2023-05-07T10:37:06;98610.70;;;7.27;75.45
77881;BME280;67077;50.298;18.996;2023-05-07T10:39:35;98615.77;;;7.34;75.19
77881;BME280;67077;50.298;18.996;2023-05-07T10:42:10;98619.21;;;7.31;74.91
77881;BME280;67077;50.298;18.996;2023-05-07T10:44:39;98620.77;;;7.27;74.87
77881;BME280;67077;50.298;18.996;2023-05-07T10:47:09;98619.11;;;7.26;75.06
77881;BME280;67077;50.298;18.996;2023-05-07T10:52:20;98617.30;;;7.26;74.92
77881;BME280;67077;50.298;18.996;2023-05-07T10:57:43;98625.30;;;7.10;75.07
77881;BME280;67077;50.298;18.996;2023-05-07T11:05:30;98635.23;;;6.96;75.92
77881;BME280;67077;50.298;18.996;2023-05-07T11:08:02;98632.38;;;6.92;76.07
77881;BME280;67077;50.298;18.996;2023-05-07T11:10:53;98630.73;;;6.90;76.39
77881;BME280;67077;50.298;18.996;2023-05-07T11:16:24;98643.61;;;6.87;76.56
77881;BME280;67077;50.298;18.996;2023-05-07T11:18:54;98643.95;;;6.95;76.45
77881;BME280;67077;50.298;18.996;2023-05-07T11:21:38;98640.47;;;7.08;76.10
77881;BME280;67077;50.298;18.996;2023-05-07T11:24:09;98645.13;;;7.09;75.87
77881;BME280;67077;50.298;18.996;2023-05-07T11:26:44;98640.10;;;7.05;75.83
77881;BME280;67077;50.298;18.996;2023-05-07T11:29:22;98641.51;;;7.00;75.86
77881;BME280;67077;50.298;18.996;2023-05-07T11:31:51;98650.36;;;6.98;75.82
77881;BME280;67077;50.298;18.996;2023-05-07T11:34:25;98653.50;;;6.90;75.41
77881;BME280;67077;50.298;18.996;2023-05-07T11:36:53;98656.58;;;6.81;75.80
77881;BME280;67077;50.298;18.996;2023-05-07T11:39:30;98651.63;;;6.73;75.91
77881;BME280;67077;50.298;18.996;2023-05-07T11:42:02;98658.00;;;6.70;76.27
77881;BME280;67077;50.298;18.996;2023-05-07T11:44:42;98659.73;;;6.72;76.35
77881;BME280;67077;50.298;18.996;2023-05-07T11:47:19;98663.68;;;6.72;76.45
77881;BME280;67077;50.298;18.996;2023-05-07T11:49:48;98663.28;;;6.74;76.57
77881;BME280;67077;50.298;18.996;2023-05-07T11:52:18;98660.94;;;6.77;76.56
77881;BME280;67077;50.298;18.996;2023-05-07T11:54:57;98658.58;;;6.82;76.35
77881;BME280;67077;50.298;18.996;2023-05-07T11:57:26;98659.51;;;6.83;76.39
77881;BME280;67077;50.298;18.996;2023-05-07T11:59:55;98657.41;;;6.81;76.22
77881;BME280;67077;50.298;18.996;2023-05-07T12:02:24;98666.73;;;6.80;76.39
77881;BME280;67077;50.298;18.996;2023-05-07T12:04:52;98662.08;;;6.81;76.23
77881;BME280;67077;50.298;18.996;2023-05-07T12:07:21;98666.77;;;6.91;76.09
77881;BME280;67077;50.298;18.996;2023-05-07T12:09:51;98665.70;;;7.03;75.79
77881;BME280;67077;50.298;18.996;2023-05-07T12:12:20;98665.90;;;7.14;75.34
77881;BME280;67077;50.298;18.996;2023-05-07T12:14:48;98665.20;;;7.29;75.07
77881;BME280;67077;50.298;18.996;2023-05-07T12:17:16;98667.81;;;7.47;74.57
77881;BME280;67077;50.298;18.996;2023-05-07T12:19:44;98670.16;;;7.63;74.10
77881;BME280;67077;50.298;18.996;2023-05-07T12:22:13;98669.33;;;7.75;73.84
77881;BME280;67077;50.298;18.996;2023-05-07T12:24:45;98670.09;;;7.86;73.57
77881;BME280;67077;50.298;18.996;2023-05-07T12:27:15;98675.23;;;7.95;72.55
77881;BME280;67077;50.298;18.996;2023-05-07T12:29:47;98678.42;;;7.91;71.21
77881;BME280;67077;50.298;18.996;2023-05-07T12:32:20;98672.98;;;7.84;71.38
77881;BME280;67077;50.298;18.996;2023-05-07T12:34:50;98674.70;;;7.78;71.31
77881;BME280;67077;50.298;18.996;2023-05-07T12:37:25;98675.54;;;7.76;71.33
77881;BME280;67077;50.298;18.996;2023-05-07T12:40:10;98677.41;;;7.75;70.99
77881;BME280;67077;50.298;18.996;2023-05-07T12:42:40;98681.80;;;7.72;71.00
77881;BME280;67077;50.298;18.996;2023-05-07T12:45:17;98681.98;;;7.68;71.40
77881;BME280;67077;50.298;18.996;2023-05-07T12:47:48;98686.76;;;7.64;71.54
77881;BME280;67077;50.298;18.996;2023-05-07T12:50:16;98688.59;;;7.60;71.67
77881;BME280;67077;50.298;18.996;2023-05-07T12:52:48;98685.23;;;7.57;71.75
77881;BME280;67077;50.298;18.996;2023-05-07T12:55:17;98689.31;;;7.53;71.86
77881;BME280;67077;50.298;18.996;2023-05-07T12:57:49;98696.71;;;7.45;71.72
77881;BME280;67077;50.298;18.996;2023-05-07T13:00:36;98696.11;;;7.35;71.91
77881;BME280;67077;50.298;18.996;2023-05-07T13:03:04;98691.46;;;7.32;72.15
77881;BME280;67077;50.298;18.996;2023-05-07T13:05:32;98698.54;;;7.35;72.20
77881;BME280;67077;50.298;18.996;2023-05-07T13:08:00;98698.94;;;7.36;72.12
77881;BME280;67077;50.298;18.996;2023-05-07T13:10:28;98698.55;;;7.37;72.05
77881;BME280;67077;50.298;18.996;2023-05-07T13:12:56;98701.16;;;7.40;71.79
77881;BME280;67077;50.298;18.996;2023-05-07T13:15:24;98702.98;;;7.39;71.58
77881;BME280;67077;50.298;18.996;2023-05-07T13:17:55;98697.14;;;7.43;71.95
77881;BME280;67077;50.298;18.996;2023-05-07T13:20:23;98698.40;;;7.47;71.83
77881;BME280;67077;50.298;18.996;2023-05-07T13:22:51;98697.75;;;7.48;71.51
77881;BME280;67077;50.298;18.996;2023-05-07T13:25:19;98700.45;;;7.42;71.07
77881;BME280;67077;50.298;18.996;2023-05-07T13:27:47;98700.98;;;7.40;71.08
77881;BME280;67077;50.298;18.996;2023-05-07T13:30:15;98696.66;;;7.41;71.33
77881;BME280;67077;50.298;18.996;2023-05-07T13:32:43;98695.59;;;7.44;71.53
77881;BME280;67077;50.298;18.996;2023-05-07T13:35:11;98701.97;;;7.48;71.67
77881;BME280;67077;50.298;18.996;2023-05-07T13:37:39;98704.77;;;7.47;71.36
77881;BME280;67077;50.298;18.996;2023-05-07T13:40:07;98701.95;;;7.46;71.26
77881;BME280;67077;50.298;18.996;2023-05-07T13:42:35;98698.86;;;7.48;71.62
77881;BME280;67077;50.298;18.996;2023-05-07T13:45:04;98697.59;;;7.48;71.57
77881;BME280;67077;50.298;18.996;2023-05-07T13:47:32;98702.76;;;7.48;71.50
77881;BME280;67077;50.298;18.996;2023-05-07T13:50:00;98699.73;;;7.47;71.36
77881;BME280;67077;50.298;18.996;2023-05-07T13:52:28;98701.87;;;7.47;71.29
77881;BME280;67077;50.298;18.996;2023-05-07T13:54:56;98704.52;;;7.47;71.39
77881;BME280;67077;50.298;18.996;2023-05-07T13:57:28;98703.37;;;7.45;71.34
77881;BME280;67077;50.298;18.996;2023-05-07T13:59:55;98705.33;;;7.42;71.56
77881;BME280;67077;50.298;18.996;2023-05-07T14:02:23;98704.58;;;7.37;71.51
77881;BME280;67077;50.298;18.996;2023-05-07T14:04:51;98706.67;;;7.31;71.61
77881;BME280;67077;50.298;18.996;2023-05-07T14:07:19;98709.45;;;7.26;71.96
77881;BME280;67077;50.298;18.996;2023-05-07T14:09:47;98712.98;;;7.19;72.36
77881;BME280;67077;50.298;18.996;2023-05-07T14:12:15;98715.50;;;7.11;72.37
77881;BME280;67077;50.298;18.996;2023-05-07T14:14:43;98716.66;;;7.06;72.62
77881;BME280;67077;50.298;18.996;2023-05-07T14:17:11;98715.48;;;7.05;72.78
77881;BME280;67077;50.298;18.996;2023-05-07T14:19:39;98718.11;;;7.06;72.48
77881;BME280;67077;50.298;18.996;2023-05-07T14:22:07;98717.63;;;7.07;72.42
77881;BME280;67077;50.298;18.996;2023-05-07T14:24:34;98724.89;;;7.10;72.64
77881;BME280;67077;50.298;18.996;2023-05-07T14:27:02;98723.67;;;7.17;72.53
77881;BME280;67077;50.298;18.996;2023-05-07T14:29:31;98723.15;;;7.28;72.08
77881;BME280;67077;50.298;18.996;2023-05-07T14:31:59;98726.21;;;7.39;71.70
77881;BME280;67077;50.298;18.996;2023-05-07T14:34:27;98726.34;;;7.48;71.16
77881;BME280;67077;50.298;18.996;2023-05-07T14:36:55;98733.47;;;7.56;70.80
77881;BME280;67077;50.298;18.996;2023-05-07T14:39:23;98738.83;;;7.60;70.27
77881;BME280;67077;50.298;18.996;2023-05-07T14:41:51;98737.84;;;7.64;70.31
77881;BME280;67077;50.298;18.996;2023-05-07T14:44:22;98737.90;;;7.65;70.21
77881;BME280;67077;50.298;18.996;2023-05-07T14:46:50;98738.45;;;7.63;70.13
77881;BME280;67077;50.298;18.996;2023-05-07T14:49:18;98738.52;;;7.59;70.14
77881;BME280;67077;50.298;18.996;2023-05-07T14:51:47;98742.95;;;7.56;70.10
77881;BME280;67077;50.298;18.996;2023-05-07T14:54:15;98747.77;;;7.55;70.04
77881;BME280;67077;50.298;18.996;2023-05-07T14:56:43;98753.74;;;7.48;70.02
77881;BME280;67077;50.298;18.996;2023-05-07T14:59:11;98755.17;;;7.36;70.41
77881;BME280;67077;50.298;18.996;2023-05-07T15:01:39;98752.98;;;7.23;70.76
77881;BME280;67077;50.298;18.996;2023-05-07T15:04:10;98752.05;;;7.12;71.27
77881;BME280;67077;50.298;18.996;2023-05-07T15:06:38;98757.77;;;7.08;71.66
77881;BME280;67077;50.298;18.996;2023-05-07T15:09:07;98754.27;;;7.03;71.71
77881;BME280;67077;50.298;18.996;2023-05-07T15:11:36;98750.38;;;6.95;72.01
77881;BME280;67077;50.298;18.996;2023-05-07T15:14:04;98762.88;;;6.89;72.26
77881;BME280;67077;50.298;18.996;2023-05-07T15:16:32;98763.39;;;6.83;72.57
77881;BME280;67077;50.298;18.996;2023-05-07T15:19:01;98772.15;;;6.80;72.67
77881;BME280;67077;50.298;18.996;2023-05-07T15:21:29;98772.13;;;6.71;72.66
77881;BME280;67077;50.298;18.996;2023-05-07T15:24:01;98769.63;;;6.61;73.23
77881;BME280;67077;50.298;18.996;2023-05-07T15:26:29;98770.48;;;6.56;73.31
77881;BME280;67077;50.298;18.996;2023-05-07T15:28:58;98775.29;;;6.55;73.39
77881;BME280;67077;50.298;18.996;2023-05-07T15:31:27;98771.45;;;6.55;73.51
77881;BME280;67077;50.298;18.996;2023-05-07T15:33:55;98772.59;;;6.52;73.55
77881;BME280;67077;50.298;18.996;2023-05-07T15:36:24;98777.43;;;6.50;73.58
77881;BME280;67077;50.298;18.996;2023-05-07T15:38:53;98779.94;;;6.49;73.35
77881;BME280;67077;50.298;18.996;2023-05-07T15:41:21;98774.89;;;6.49;73.06
77881;BME280;67077;50.298;18.996;2023-05-07T15:43:51;98772.63;;;6.47;73.03
77881;BME280;67077;50.298;18.996;2023-05-07T15:46:22;98777.73;;;6.46;73.08
77881;BME280;67077;50.298;18.996;2023-05-07T15:48:52;98777.96;;;6.47;73.21
77881;BME280;67077;50.298;18.996;2023-05-07T15:51:20;98777.64;;;6.50;73.10
77881;BME280;67077;50.298;18.996;2023-05-07T15:53:49;98784.10;;;6.53;72.84
77881;BME280;67077;50.298;18.996;2023-05-07T15:56:18;98788.38;;;6.55;72.89
77881;BME280;67077;50.298;18.996;2023-05-07T15:58:47;98785.41;;;6.53;72.74
77881;BME280;67077;50.298;18.996;2023-05-07T16:01:16;98782.00;;;6.51;72.90
77881;BME280;67077;50.298;18.996;2023-05-07T16:03:44;98779.88;;;6.52;72.95
77881;BME280;67077;50.298;18.996;2023-05-07T16:06:12;98781.02;;;6.56;72.93
77881;BME280;67077;50.298;18.996;2023-05-07T16:08:40;98778.02;;;6.61;73.01
77881;BME280;67077;50.298;18.996;2023-05-07T16:11:08;98776.40;;;6.63;73.18
77881;BME280;67077;50.298;18.996;2023-05-07T16:13:36;98778.45;;;6.62;73.16
77881;BME280;67077;50.298;18.996;2023-05-07T16:16:04;98780.67;;;6.59;73.10
77881;BME280;67077;50.298;18.996;2023-05-07T16:18:34;98782.77;;;6.58;72.95
77881;BME280;67077;50.298;18.996;2023-05-07T16:21:05;98785.31;;;6.56;72.84
77881;BME280;67077;50.298;18.996;2023-05-07T16:23:33;98783.79;;;6.52;72.95
77881;BME280;67077;50.298;18.996;2023-05-07T16:26:01;98790.66;;;6.50;73.30
77881;BME280;67077;50.298;18.996;2023-05-07T16:28:29;98790.92;;;6.47;73.25
77881;BME280;67077;50.298;18.996;2023-05-07T16:30:57;98788.24;;;6.45;73.17
77881;BME280;67077;50.298;18.996;2023-05-07T16:33:25;98791.84;;;6.40;73.09
77881;BME280;67077;50.298;18.996;2023-05-07T16:35:53;98792.52;;;6.35;73.43
77881;BME280;67077;50.298;18.996;2023-05-07T16:38:21;98786.44;;;6.28;73.68
77881;BME280;67077;50.298;18.996;2023-05-07T16:40:49;98787.14;;;6.25;73.63
77881;BME280;67077;50.298;18.996;2023-05-07T16:43:17;98790.67;;;6.25;74.00
77881;BME280;67077;50.298;18.996;2023-05-07T16:45:45;98796.23;;;6.25;73.87
77881;BME280;67077;50.298;18.996;2023-05-07T16:48:13;98798.70;;;6.22;73.84
77881;BME280;67077;50.298;18.996;2023-05-07T16:50:41;98796.70;;;6.21;73.96
77881;BME280;67077;50.298;18.996;2023-05-07T16:53:11;98794.95;;;6.21;73.65
77881;BME280;67077;50.298;18.996;2023-05-07T16:55:39;98792.14;;;6.19;73.81
77881;BME280;67077;50.298;18.996;2023-05-07T16:58:09;98791.02;;;6.16;73.75
77881;BME280;67077;50.298;18.996;2023-05-07T17:00:38;98790.36;;;6.14;73.93
77881;BME280;67077;50.298;18.996;2023-05-07T17:03:06;98795.61;;;6.14;73.96
77881;BME280;67077;50.298;18.996;2023-05-07T17:05:34;98801.07;;;6.14;73.81
77881;BME280;67077;50.298;18.996;2023-05-07T17:08:02;98803.69;;;6.13;73.96
77881;BME280;67077;50.298;18.996;2023-05-07T17:10:30;98806.97;;;6.13;73.99
77881;BME280;67077;50.298;18.996;2023-05-07T17:12:58;98804.85;;;6.13;74.10
77881;BME280;67077;50.298;18.996;2023-05-07T17:15:26;98807.27;;;6.15;73.66
77881;BME280;67077;50.298;18.996;2023-05-07T17:17:54;98804.27;;;6.16;73.66
77881;BME280;67077;50.298;18.996;2023-05-07T17:20:22;98810.99;;;6.15;73.71
77881;BME280;67077;50.298;18.996;2023-05-07T17:22:50;98814.66;;;6.15;73.69
77881;BME280;67077;50.298;18.996;2023-05-07T17:25:18;98817.23;;;6.17;73.81
77881;BME280;67077;50.298;18.996;2023-05-07T17:27:46;98822.34;;;6.21;73.50
77881;BME280;67077;50.298;18.996;2023-05-07T17:30:14;98820.06;;;6.21;73.11
77881;BME280;67077;50.298;18.996;2023-05-07T17:32:42;98818.55;;;6.19;73.44
77881;BME280;67077;50.298;18.996;2023-05-07T17:35:10;98825.94;;;6.18;73.45
77881;BME280;67077;50.298;18.996;2023-05-07T17:37:38;98826.12;;;6.16;73.22
77881;BME280;67077;50.298;18.996;2023-05-07T17:40:07;98831.63;;;6.16;73.43
77881;BME280;67077;50.298;18.996;2023-05-07T17:42:35;98834.37;;;6.18;73.15
77881;BME280;67077;50.298;18.996;2023-05-07T17:45:03;98833.60;;;6.13;72.91
77881;BME280;67077;50.298;18.996;2023-05-07T17:47:32;98829.61;;;6.10;73.50
77881;BME280;67077;50.298;18.996;2023-05-07T17:50:00;98829.15;;;6.13;73.67
77881;BME280;67077;50.298;18.996;2023-05-07T17:52:29;98833.48;;;6.14;73.37
77881;BME280;67077;50.298;18.996;2023-05-07T17:54:57;98830.27;;;6.11;73.35
77881;BME280;67077;50.298;18.996;2023-05-07T17:57:25;98834.27;;;6.06;73.64
77881;BME280;67077;50.298;18.996;2023-05-07T17:59:54;98833.45;;;6.05;73.68
77881;BME280;67077;50.298;18.996;2023-05-07T18:02:22;98836.70;;;6.08;73.88
77881;BME280;67077;50.298;18.996;2023-05-07T18:04:50;98834.35;;;6.08;73.74
77881;BME280;67077;50.298;18.996;2023-05-07T18:07:18;98836.31;;;6.07;73.60
77881;BME280;67077;50.298;18.996;2023-05-07T18:09:47;98834.23;;;6.05;73.66
77881;BME280;67077;50.298;18.996;2023-05-07T18:12:19;98835.82;;;6.03;73.66
77881;BME280;67077;50.298;18.996;2023-05-07T18:14:47;98839.77;;;6.05;73.71
77881;BME280;67077;50.298;18.996;2023-05-07T18:17:15;98849.88;;;6.02;73.23
77881;BME280;67077;50.298;18.996;2023-05-07T18:19:43;98848.65;;;5.98;72.95
77881;BME280;67077;50.298;18.996;2023-05-07T18:22:11;98851.65;;;5.96;73.08
77881;BME280;67077;50.298;18.996;2023-05-07T18:24:39;98850.14;;;5.96;73.10
77881;BME280;67077;50.298;18.996;2023-05-07T18:27:07;98852.90;;;5.97;72.69
77881;BME280;67077;50.298;18.996;2023-05-07T18:29:35;98852.95;;;5.97;72.45
77881;BME280;67077;50.298;18.996;2023-05-07T18:32:03;98852.23;;;5.95;72.74
77881;BME280;67077;50.298;18.996;2023-05-07T18:34:31;98854.84;;;5.94;72.82
77881;BME280;67077;50.298;18.996;2023-05-07T18:36:59;98855.14;;;5.95;72.95
77881;BME280;67077;50.298;18.996;2023-05-07T18:39:28;98858.37;;;5.98;72.93
77881;BME280;67077;50.298;18.996;2023-05-07T18:41:56;98858.78;;;5.99;72.90
77881;BME280;67077;50.298;18.996;2023-05-07T18:44:25;98861.05;;;5.96;73.08
77881;BME280;67077;50.298;18.996;2023-05-07T18:46:53;98867.09;;;5.95;73.21
77881;BME280;67077;50.298;18.996;2023-05-07T18:49:21;98867.08;;;5.95;73.35
77881;BME280;67077;50.298;18.996;2023-05-07T18:51:49;98870.48;;;5.98;73.26
77881;BME280;67077;50.298;18.996;2023-05-07T18:54:18;98865.08;;;5.97;73.17
77881;BME280;67077;50.298;18.996;2023-05-07T18:56:47;98865.67;;;5.95;73.11
77881;BME280;67077;50.298;18.996;2023-05-07T18:59:20;98867.19;;;5.92;73.28
77881;BME280;67077;50.298;18.996;2023-05-07T19:01:49;98867.83;;;5.93;73.23
77881;BME280;67077;50.298;18.996;2023-05-07T19:04:17;98871.45;;;5.94;73.40
77881;BME280;67077;50.298;18.996;2023-05-07T19:06:45;98874.52;;;5.94;73.24
77881;BME280;67077;50.298;18.996;2023-05-07T19:09:13;98875.84;;;5.91;73.50
77881;BME280;67077;50.298;18.996;2023-05-07T19:11:41;98880.27;;;5.89;73.65
77881;BME280;67077;50.298;18.996;2023-05-07T19:14:09;98884.27;;;5.92;73.90
77881;BME280;67077;50.298;18.996;2023-05-07T19:16:38;98880.03;;;5.93;74.03